createdAt,value
2022-11-26T00:01:01.350Z,102237.84
2022-11-26T00:03:47.306Z,102241.50
2022-11-26T00:06:39.326Z,102239.91
2022-11-26T00:09:25.096Z,102245.16
2022-11-26T00:12:22.057Z,102215.78
2022-11-26T00:15:26.722Z,102243.03
2022-11-26T00:18:13.053Z,102226.66
2022-11-26T00:21:01.082Z,102237.91
2022-11-26T00:23:46.176Z,102238.88
2022-11-26T00:26:32.251Z,102235.28
2022-11-26T00:29:17.538Z,102240.44
2022-11-26T00:32:02.773Z,102227.59
2022-11-26T00:34:48.167Z,102219.09
2022-11-26T00:37:40.931Z,102228.56
2022-11-26T00:40:28.810Z,102222.78
2022-11-26T00:43:15.515Z,102236.66
2022-11-26T00:46:00.612Z,102237.53
2022-11-26T00:48:45.945Z,102220.38
2022-11-26T00:51:31.256Z,102237.44
2022-11-26T00:54:18.490Z,102238.16
2022-11-26T00:57:03.662Z,102228.69
2022-11-26T00:59:48.847Z,102235.56
2022-11-26T01:02:33.773Z,102232.84
2022-11-26T01:05:20.352Z,102222.78
2022-11-26T01:08:20.457Z,102242.47
2022-11-26T01:11:05.951Z,102236.53
2022-11-26T01:13:52.727Z,102245.16
2022-11-26T01:16:42.073Z,102234.59
2022-11-26T01:19:27.289Z,102216.75
2022-11-26T01:22:21.083Z,102232.19
2022-11-26T01:25:06.611Z,102243.41
2022-11-26T01:27:52.545Z,102239.31
2022-11-26T01:30:38.095Z,102242.91
2022-11-26T01:33:23.353Z,102242.09
2022-11-26T01:36:28.007Z,102240.38
2022-11-26T01:39:19.819Z,102241.16
2022-11-26T01:42:32.748Z,102246.00
2022-11-26T01:45:20.538Z,102252.03
2022-11-26T01:48:28.331Z,102242.69
2022-11-26T01:51:15.465Z,102241.72
2022-11-26T01:54:00.982Z,102255.66
2022-11-26T01:56:52.713Z,102247.09
2022-11-26T01:59:42.056Z,102234.47
2022-11-26T02:02:29.826Z,102242.22
2022-11-26T02:05:20.733Z,102245.75
2022-11-26T02:08:06.755Z,102251.03
2022-11-26T02:10:52.466Z,102239.75
2022-11-26T02:13:37.281Z,102246.63
2022-11-26T02:16:40.022Z,102242.19
2022-11-26T02:19:49.764Z,102240.38
2022-11-26T02:22:43.574Z,102244.56
2022-11-26T02:26:07.722Z,102240.19
2022-11-26T02:29:20.479Z,102226.56
2022-11-26T02:32:13.839Z,102250.53
2022-11-26T02:35:06.566Z,102236.84
2022-11-26T02:37:55.901Z,102252.09
2022-11-26T02:40:41.425Z,102258.00
2022-11-26T02:43:27.089Z,102257.94
2022-11-26T02:46:18.487Z,102257.94
2022-11-26T02:49:04.227Z,102250.94
2022-11-26T02:51:54.502Z,102254.25
2022-11-26T02:54:41.438Z,102248.22
2022-11-26T02:57:30.494Z,102262.88
2022-11-26T03:00:16.681Z,102250.00
2022-11-26T03:03:08.764Z,102252.44
2022-11-26T03:05:58.122Z,102266.16
2022-11-26T03:08:45.269Z,102257.34
2022-11-26T03:11:30.530Z,102263.38
2022-11-26T03:14:15.747Z,102264.28
2022-11-26T03:17:00.731Z,102276.25
2022-11-26T03:19:46.541Z,102273.56
2022-11-26T03:22:31.655Z,102239.31
2022-11-26T03:25:16.935Z,102253.00
2022-11-26T03:28:02.881Z,102259.88
2022-11-26T03:30:50.994Z,102276.19
2022-11-26T03:33:35.880Z,102272.03
2022-11-26T03:36:21.964Z,102266.03
2022-11-26T03:39:07.074Z,102261.81
2022-11-26T03:41:52.282Z,102266.97
2022-11-26T03:44:37.556Z,102262.66
2022-11-26T03:47:22.715Z,102240.31
2022-11-26T03:50:08.820Z,102255.53
2022-11-26T03:52:53.719Z,102250.34
2022-11-26T03:55:38.880Z,102241.66
2022-11-26T03:58:23.828Z,102252.66
2022-11-26T04:01:12.879Z,102240.78
2022-11-26T04:03:58.003Z,102230.56
2022-11-26T04:06:43.312Z,102239.25
2022-11-26T04:09:28.222Z,102224.66
2022-11-26T04:12:13.282Z,102243.41
2022-11-26T04:14:58.333Z,102241.72
2022-11-26T04:17:43.243Z,102239.13
2022-11-26T04:20:28.628Z,102209.16
2022-11-26T04:23:13.874Z,102247.72
2022-11-26T04:25:58.836Z,102242.59
2022-11-26T04:28:44.526Z,102250.28
2022-11-26T04:31:29.652Z,102237.44
2022-11-26T04:34:14.797Z,102244.38
2022-11-26T04:36:59.802Z,102219.59
2022-11-26T04:39:44.828Z,102241.97
2022-11-26T04:42:29.812Z,102242.06
2022-11-26T04:45:15.257Z,102241.28
2022-11-26T04:48:00.520Z,102248.22
2022-11-26T04:50:45.861Z,102261.16
2022-11-26T04:53:31.222Z,102255.19
2022-11-26T04:56:16.404Z,102261.25
2022-11-26T04:59:01.444Z,102261.19
2022-11-26T05:01:47.442Z,102256.84
2022-11-26T05:04:32.840Z,102245.59
2022-11-26T05:07:18.043Z,102253.41
2022-11-26T05:10:05.000Z,102256.00
2022-11-26T05:12:50.198Z,102264.63
2022-11-26T05:15:35.469Z,102269.66
2022-11-26T05:18:20.776Z,102268.84
2022-11-26T05:21:06.649Z,102272.25
2022-11-26T05:23:51.944Z,102270.47
2022-11-26T05:26:37.120Z,102274.81
2022-11-26T05:29:22.306Z,102276.38
2022-11-26T05:32:07.452Z,102266.06
2022-11-26T05:34:55.679Z,102265.97
2022-11-26T05:37:43.529Z,102268.69
2022-11-26T05:40:28.889Z,102267.69
2022-11-26T05:43:14.009Z,102274.56
2022-11-26T05:46:07.675Z,102267.59
2022-11-26T05:48:53.105Z,102270.97
2022-11-26T05:51:38.320Z,102265.72
2022-11-26T05:54:23.288Z,102246.81
2022-11-26T05:57:08.618Z,102230.50
2022-11-26T05:59:53.906Z,102261.28
2022-11-26T06:02:39.616Z,102257.00
2022-11-26T06:05:24.760Z,102245.91
2022-11-26T06:08:10.062Z,102245.22
2022-11-26T06:10:55.322Z,102258.00
2022-11-26T06:13:40.565Z,102267.41
2022-11-26T06:16:25.592Z,102266.63
2022-11-26T06:19:11.568Z,102263.25
2022-11-26T06:21:56.559Z,102261.50
2022-11-26T06:24:41.540Z,102258.84
2022-11-26T06:27:26.552Z,102237.41
2022-11-26T06:30:12.246Z,102237.34
2022-11-26T06:32:57.331Z,102263.13
2022-11-26T06:35:42.392Z,102283.59
2022-11-26T06:38:28.231Z,102249.22
2022-11-26T06:41:13.641Z,102269.78
2022-11-26T06:43:59.986Z,102271.44
2022-11-26T06:46:45.179Z,102276.59
2022-11-26T06:49:30.781Z,102272.25
2022-11-26T06:52:15.685Z,102262.00
2022-11-26T06:55:00.744Z,102268.94
2022-11-26T06:57:49.532Z,102267.91
2022-11-26T07:00:34.717Z,102279.88
2022-11-26T07:03:23.784Z,102287.81
2022-11-26T07:06:23.962Z,102272.44
2022-11-26T07:09:10.511Z,102290.34
2022-11-26T07:11:55.584Z,102251.59
2022-11-26T07:14:40.656Z,102284.19
2022-11-26T07:17:27.965Z,102287.88
2022-11-26T07:20:14.193Z,102255.53
2022-11-26T07:22:59.336Z,102292.50
2022-11-26T07:25:44.541Z,102295.88
2022-11-26T07:28:30.039Z,102301.91
2022-11-26T07:31:18.684Z,102310.53
2022-11-26T07:34:04.078Z,102303.66
2022-11-26T07:36:49.623Z,102289.16
2022-11-26T07:39:34.877Z,102296.91
2022-11-26T07:42:20.247Z,102296.09
2022-11-26T07:45:05.763Z,102292.72
2022-11-26T07:47:51.017Z,102297.91
2022-11-26T07:50:36.181Z,102293.63
2022-11-26T07:53:21.169Z,102276.22
2022-11-26T07:56:06.569Z,102255.59
2022-11-26T07:58:52.049Z,102265.84
2022-11-26T08:01:37.364Z,102280.44
2022-11-26T08:04:22.510Z,102273.44
2022-11-26T08:07:07.950Z,102263.94
2022-11-26T08:09:52.899Z,102251.03
2022-11-26T08:12:37.993Z,102275.88
2022-11-26T08:15:23.253Z,102261.22
2022-11-26T08:18:08.508Z,102274.97
2022-11-26T08:20:58.007Z,102277.50
2022-11-26T08:23:43.184Z,102274.97
2022-11-26T08:26:35.075Z,102273.16
2022-11-26T08:29:21.415Z,102273.94
2022-11-26T08:32:06.577Z,102273.94
2022-11-26T08:34:51.793Z,102278.19
2022-11-26T08:37:36.819Z,102267.75
2022-11-26T08:40:21.718Z,102275.41
2022-11-26T08:43:09.852Z,102274.47
2022-11-26T08:45:57.013Z,102281.28
2022-11-26T08:48:42.435Z,102236.34
2022-11-26T08:51:27.421Z,102265.66
2022-11-26T08:54:12.803Z,102261.03
2022-11-26T08:56:58.151Z,102266.66
2022-11-26T08:59:43.386Z,102253.75
2022-11-26T09:02:28.379Z,102250.38
2022-11-26T09:05:13.622Z,102240.81
2022-11-26T09:07:58.932Z,102233.84
2022-11-26T09:10:53.496Z,102243.34
2022-11-26T09:13:38.395Z,102246.88
2022-11-26T09:16:24.531Z,102246.09
2022-11-26T09:19:12.167Z,102270.88
2022-11-26T09:21:58.557Z,102269.94
2022-11-26T09:24:43.898Z,102272.28
2022-11-26T09:27:29.009Z,102274.72
2022-11-26T09:30:16.161Z,102275.50
2022-11-26T09:33:01.466Z,102253.91
2022-11-26T09:35:46.588Z,102276.03
2022-11-26T09:38:31.755Z,102274.13
2022-11-26T09:41:32.263Z,102270.66
2022-11-26T09:44:26.487Z,102265.22
2022-11-26T09:47:17.635Z,102264.97
2022-11-26T09:50:17.519Z,102267.38
2022-11-26T09:53:12.936Z,102268.84
2022-11-26T09:56:00.561Z,102270.28
2022-11-26T09:58:49.876Z,102279.63
2022-11-26T10:01:34.823Z,102275.97
2022-11-26T10:04:31.474Z,102274.75
2022-11-26T10:08:03.950Z,102258.97
2022-11-26T10:11:01.180Z,102260.00
2022-11-26T10:14:04.274Z,102257.59
2022-11-26T10:17:20.182Z,102265.78
2022-11-26T10:20:21.941Z,102276.47
2022-11-26T10:23:13.325Z,102274.47
2022-11-26T10:26:27.170Z,102258.53
2022-11-26T10:29:21.197Z,102274.19
2022-11-26T10:32:14.592Z,102272.72
2022-11-26T10:35:00.346Z,102264.25
2022-11-26T10:37:45.351Z,102233.78
2022-11-26T10:40:32.191Z,102268.56
2022-11-26T10:43:21.413Z,102258.00
2022-11-26T10:46:06.809Z,102247.38
2022-11-26T10:48:52.172Z,102248.28
2022-11-26T10:51:37.717Z,102238.03
2022-11-26T10:54:35.386Z,102241.72
2022-11-26T10:57:20.654Z,102241.47
2022-11-26T11:00:06.460Z,102222.75
2022-11-26T11:02:51.669Z,102218.16
2022-11-26T11:05:37.164Z,102205.06
2022-11-26T11:08:31.058Z,102212.53
2022-11-26T11:11:25.773Z,102211.34
2022-11-26T11:14:29.057Z,102208.44
2022-11-26T11:17:39.909Z,102209.06
2022-11-26T11:20:34.806Z,102189.06
2022-11-26T11:23:35.020Z,102204.19
2022-11-26T11:26:43.547Z,102190.34
2022-11-26T11:29:28.600Z,102187.28
2022-11-26T11:32:34.542Z,102202.53
2022-11-26T11:35:19.583Z,102200.59
2022-11-26T11:38:04.865Z,102203.91
2022-11-26T11:40:50.859Z,102196.78
2022-11-26T11:43:37.253Z,102187.84
2022-11-26T11:46:22.472Z,102180.13
2022-11-26T11:49:07.353Z,102190.09
2022-11-26T11:51:58.130Z,102181.09
2022-11-26T11:55:01.826Z,102173.06
2022-11-26T11:58:17.796Z,102174.56
2022-11-26T12:01:40.596Z,102165.47
2022-11-26T12:04:56.505Z,102164.00
2022-11-26T12:07:52.738Z,102161.84
2022-11-26T12:11:02.403Z,102167.78
2022-11-26T12:13:52.139Z,102148.28
2022-11-26T12:16:42.418Z,102146.38
2022-11-26T12:19:39.550Z,102141.13
2022-11-26T12:22:49.618Z,102136.56
2022-11-26T12:25:37.469Z,102138.97
2022-11-26T12:28:27.241Z,102138.03
2022-11-26T12:31:24.064Z,102137.03
2022-11-26T12:34:23.875Z,102127.47
2022-11-26T12:37:21.617Z,102130.94
2022-11-26T12:40:39.055Z,102122.22
2022-11-26T12:43:43.151Z,102123.91
2022-11-26T12:46:42.766Z,102099.28
2022-11-26T12:49:35.647Z,102121.22
2022-11-26T12:52:47.140Z,102127.38
2022-11-26T12:55:41.667Z,102129.78
2022-11-26T12:58:56.527Z,102128.78
2022-11-26T13:01:41.545Z,102121.75
2022-11-26T13:04:43.793Z,102108.72
2022-11-26T13:07:41.178Z,102122.53
2022-11-26T13:10:33.581Z,102105.00
2022-11-26T13:13:42.369Z,102098.06
2022-11-26T13:16:40.869Z,102109.47
2022-11-26T13:19:34.312Z,102084.47
2022-11-26T13:22:48.339Z,102096.28
2022-11-26T13:26:04.737Z,102101.47
2022-11-26T13:28:52.650Z,102098.56
2022-11-26T13:31:50.064Z,102093.59
2022-11-26T13:35:00.930Z,102094.66
2022-11-26T13:37:55.133Z,102085.84
2022-11-26T13:40:46.381Z,102087.38
2022-11-26T13:44:07.042Z,102093.66
2022-11-26T13:47:06.241Z,102082.31
2022-11-26T13:50:17.523Z,102064.63
2022-11-26T13:53:06.414Z,102072.34
2022-11-26T13:55:59.175Z,102071.41
2022-11-26T13:58:49.355Z,102062.47
2022-11-26T14:01:42.145Z,102065.00
2022-11-26T14:04:47.553Z,102052.13
2022-11-26T14:07:37.700Z,102054.81
2022-11-26T14:10:35.097Z,102041.94
2022-11-26T14:13:20.027Z,102030.06
2022-11-26T14:16:09.609Z,102041.88
2022-11-26T14:18:58.800Z,102053.13
2022-11-26T14:21:58.255Z,102053.19
2022-11-26T14:24:49.735Z,102046.47
2022-11-26T14:27:40.267Z,102053.72
2022-11-26T14:30:27.423Z,102037.63
2022-11-26T14:33:18.933Z,102043.88
2022-11-26T14:36:18.382Z,102043.72
2022-11-26T14:39:12.868Z,102047.97
2022-11-26T14:42:04.139Z,102042.72
2022-11-26T14:45:17.043Z,102048.13
2022-11-26T14:48:03.982Z,102043.16
2022-11-26T14:50:49.083Z,102030.41
2022-11-26T14:53:35.911Z,102036.22
2022-11-26T14:56:24.081Z,102040.53
2022-11-26T14:59:15.246Z,102013.72
2022-11-26T15:02:00.632Z,102048.78
2022-11-26T15:04:46.054Z,102043.94
2022-11-26T15:07:31.810Z,102037.66
2022-11-26T15:10:20.123Z,102035.03
2022-11-26T15:13:12.972Z,102027.50
2022-11-26T15:16:03.516Z,102034.38
2022-11-26T15:18:52.764Z,102020.63
2022-11-26T15:21:40.732Z,102026.50
2022-11-26T15:24:26.961Z,102009.91
2022-11-26T15:27:29.567Z,102030.28
2022-11-26T15:30:19.127Z,102024.19
2022-11-26T15:33:04.255Z,102020.56
2022-11-26T15:35:56.769Z,102013.44
2022-11-26T15:39:08.980Z,102015.88
2022-11-26T15:41:56.644Z,102012.69
2022-11-26T15:44:42.938Z,102008.88
2022-11-26T15:47:29.073Z,102004.72
2022-11-26T15:50:36.435Z,101998.97
2022-11-26T15:53:28.775Z,101979.06
2022-11-26T15:56:20.957Z,101978.41
2022-11-26T15:59:14.823Z,101975.16
2022-11-26T16:02:14.517Z,101969.91
2022-11-26T16:05:03.526Z,101962.25
2022-11-26T16:08:21.851Z,101958.44
2022-11-26T16:11:19.323Z,101953.16
2022-11-26T16:14:23.123Z,101950.63
2022-11-26T16:17:16.624Z,101945.88
2022-11-26T16:20:01.942Z,101951.44
2022-11-26T16:22:49.743Z,101939.41
2022-11-26T16:25:36.179Z,101940.41
2022-11-26T16:28:21.211Z,101927.53
2022-11-26T16:31:06.671Z,101931.88
2022-11-26T16:33:51.971Z,101922.28
2022-11-26T16:36:41.981Z,101904.31
2022-11-26T16:39:30.179Z,101907.56
2022-11-26T16:42:23.567Z,101894.38
2022-11-26T16:45:09.976Z,101892.75
2022-11-26T16:47:55.743Z,101886.66
2022-11-26T16:50:40.590Z,101873.72
2022-11-26T16:53:25.614Z,101842.22
2022-11-26T16:56:26.696Z,101892.09
2022-11-26T16:59:19.341Z,101884.91
2022-11-26T17:02:06.571Z,101880.81
2022-11-26T17:04:52.137Z,101891.81
2022-11-26T17:07:46.694Z,101890.03
2022-11-26T17:10:31.867Z,101889.28
2022-11-26T17:13:17.694Z,101889.19
2022-11-26T17:16:04.302Z,101873.00
2022-11-26T17:18:50.124Z,101875.56
2022-11-26T17:21:35.234Z,101872.84
2022-11-26T17:24:24.672Z,101888.13
2022-11-26T17:27:15.499Z,101905.66
2022-11-26T17:30:00.676Z,101884.22
2022-11-26T17:32:45.797Z,101909.09
2022-11-26T17:35:31.209Z,101906.25
2022-11-26T17:38:21.815Z,101906.25
2022-11-26T17:41:07.355Z,101894.06
2022-11-26T17:43:52.644Z,101895.75
2022-11-26T17:47:00.861Z,101876.94
2022-11-26T17:49:42.434Z,101881.72
2022-11-26T17:52:27.842Z,101873.41
2022-11-26T17:55:13.557Z,101864.75
2022-11-26T17:57:58.794Z,101881.72
2022-11-26T18:00:43.867Z,101893.88
2022-11-26T18:03:29.135Z,101883.38
2022-11-26T18:06:35.851Z,101872.91
2022-11-26T18:09:21.186Z,101868.06
2022-11-26T18:12:08.248Z,101881.59
2022-11-26T18:14:54.865Z,101881.53
2022-11-26T18:17:39.805Z,101885.09
2022-11-26T18:20:27.988Z,101885.84
2022-11-26T18:23:13.428Z,101884.34
2022-11-26T18:25:58.516Z,101881.72
2022-11-26T18:28:43.513Z,101864.59
2022-11-26T18:31:29.816Z,101877.41
2022-11-26T18:34:14.853Z,101864.59
2022-11-26T18:37:00.293Z,101867.91
2022-11-26T18:39:45.542Z,101866.19
2022-11-26T18:42:38.592Z,101860.28
2022-11-26T18:45:24.063Z,101851.47
2022-11-26T18:48:09.249Z,101845.63
2022-11-26T18:50:58.110Z,101849.25
2022-11-26T18:53:44.885Z,101838.16
2022-11-26T18:56:29.804Z,101853.50
2022-11-26T18:59:15.386Z,101864.69
2022-11-26T19:02:01.322Z,101830.16
2022-11-26T19:04:46.469Z,101827.03
2022-11-26T19:07:33.135Z,101820.09
2022-11-26T19:10:18.256Z,101827.09
2022-11-26T19:13:03.994Z,101816.72
2022-11-26T19:15:49.190Z,101804.53
2022-11-26T19:18:35.200Z,101811.47
2022-11-26T19:21:25.714Z,101793.16
2022-11-26T19:24:11.596Z,101793.16
2022-11-26T19:26:56.951Z,101783.69
2022-11-26T19:29:42.380Z,101771.88
2022-11-26T19:32:28.494Z,101760.66
2022-11-26T19:35:13.974Z,101757.63
2022-11-26T19:37:59.001Z,101746.72
2022-11-26T19:40:44.207Z,101743.75
2022-11-26T19:43:32.732Z,101743.75
2022-11-26T19:46:21.480Z,101738.44
2022-11-26T19:49:07.287Z,101720.25
2022-11-26T19:51:53.277Z,101726.28
2022-11-26T19:54:38.315Z,101712.47
2022-11-26T19:57:23.208Z,101704.59
2022-11-26T20:00:09.583Z,101692.06
2022-11-26T20:02:54.713Z,101703.94
2022-11-26T20:05:40.641Z,101709.94
2022-11-26T20:08:25.547Z,101716.97
2022-11-26T20:11:11.165Z,101718.66
2022-11-26T20:13:57.500Z,101711.63
2022-11-26T20:16:44.978Z,101715.94
2022-11-26T20:19:30.059Z,101693.84
2022-11-26T20:22:15.304Z,101699.09
2022-11-26T20:25:00.275Z,101714.06
2022-11-26T20:27:45.722Z,101720.16
2022-11-26T20:30:31.524Z,101701.47
2022-11-26T20:33:18.872Z,101708.94
2022-11-26T20:36:09.248Z,101704.44
2022-11-26T20:38:56.114Z,101697.44
2022-11-26T20:41:41.386Z,101705.31
2022-11-26T20:44:28.490Z,101680.50
2022-11-26T20:47:13.746Z,101687.53
2022-11-26T20:49:59.037Z,101663.50
2022-11-26T20:52:44.002Z,101664.78
2022-11-26T20:55:29.174Z,101660.38
2022-11-26T20:58:14.557Z,101654.63
2022-11-26T21:01:01.319Z,101671.47
2022-11-26T21:03:46.946Z,101655.13
2022-11-26T21:06:34.842Z,101646.16
2022-11-26T21:09:20.408Z,101645.13
2022-11-26T21:12:05.688Z,101636.72
2022-11-26T21:14:51.394Z,101636.34
2022-11-26T21:17:36.479Z,101630.16
2022-11-26T21:20:21.844Z,101625.75
2022-11-26T21:23:08.708Z,101626.63
2022-11-26T21:25:54.276Z,101626.53
2022-11-26T21:28:39.568Z,101622.13
2022-11-26T21:31:26.541Z,101615.13
2022-11-26T21:34:12.108Z,101618.59
2022-11-26T21:36:57.269Z,101625.44
2022-11-26T21:39:42.312Z,101598.81
2022-11-26T21:42:27.468Z,101588.31
2022-11-26T21:45:12.607Z,101590.47
2022-11-26T21:47:57.846Z,101598.25
2022-11-26T21:50:42.978Z,101577.63
2022-11-26T21:53:27.952Z,101577.34
2022-11-26T21:56:14.267Z,101595.63
2022-11-26T21:59:00.819Z,101593.97
2022-11-26T22:01:47.293Z,101574.19
2022-11-26T22:04:32.670Z,101586.59
2022-11-26T22:07:18.568Z,101580.84
2022-11-26T22:10:04.192Z,101588.78
2022-11-26T22:12:49.073Z,101592.25
2022-11-26T22:15:34.192Z,101578.41
2022-11-26T22:18:19.426Z,101577.97
2022-11-26T22:21:07.302Z,101560.47
2022-11-26T22:23:52.563Z,101568.56
2022-11-26T22:26:38.024Z,101562.09
2022-11-26T22:29:22.981Z,101566.97
2022-11-26T22:32:09.795Z,101566.78
2022-11-26T22:34:55.147Z,101566.88
2022-11-26T22:37:40.541Z,101552.91
2022-11-26T22:40:25.746Z,101538.97
2022-11-26T22:43:10.900Z,101546.81
2022-11-26T22:45:56.244Z,101553.75
2022-11-26T22:48:42.176Z,101524.22
2022-11-26T22:51:29.573Z,101545.03
2022-11-26T22:54:16.353Z,101541.69
2022-11-26T22:57:01.327Z,101549.56
2022-11-26T22:59:46.619Z,101539.91
2022-11-26T23:02:31.473Z,101543.44
2022-11-26T23:05:16.519Z,101528.56
2022-11-26T23:08:01.715Z,101531.34
2022-11-26T23:10:48.414Z,101504.91
2022-11-26T23:13:34.071Z,101539.75
2022-11-26T23:16:21.677Z,101533.00
2022-11-26T23:19:07.611Z,101537.09
2022-11-26T23:21:52.725Z,101540.03
2022-11-26T23:24:37.766Z,101533.47
2022-11-26T23:27:22.760Z,101530.44
2022-11-26T23:30:08.811Z,101530.44
2022-11-26T23:32:53.786Z,101525.09
2022-11-26T23:35:38.973Z,101528.22
2022-11-26T23:38:24.317Z,101515.44
2022-11-26T23:41:09.442Z,101516.53
2022-11-26T23:43:54.710Z,101511.66
2022-11-26T23:46:40.165Z,101515.00
2022-11-26T23:49:24.955Z,101514.41
2022-11-26T23:52:10.722Z,101508.34
2022-11-26T23:54:56.940Z,101492.78
2022-11-26T23:57:41.911Z,101505.81
